Terminal Aerodrome Forecast
Issued by NWS Goodland, KS

Home | Current Version | Previous Version | Text Only | Print | Product List | Glossary On
Versions: 1 2 3 4 5 6 7 8 9 10 11 12 13 14 15
000
FTUS43 KGLD 202324
TAFGLD
TAF
KGLD 202324Z 2100/2124 18015G24KT P6SM SCT250
     FM210100 17012KT P6SM SCT200 WS020/23040KT
     FM211500 34023G36KT P6SM SCT200=

USA.gov is the U.S. government's official web portal to all federal, state and local government web resources and services.